Etusivu
METAR-TAF:

METAR-TAF

Lentoasemat :

Gafsa, Tunisia

Leveyspiiri: 34-25N, Pituuspiiri: 008-49E, korkeus merenpinnasta: 313 m

Tämänhetkinen sää

Tämä raportti tehtiin 29 minuuttia sitten, kello 10.00 UTC
Tuuli 9 kn lännestä/lounaasta, vaihdellen etelän/lounaan ja lännen välillä
Lämpötila 25°C
Kosteus 34%
Ilmanpaine 1018 hPa
Näkyvyys: 8000 m
Hajanaisia pilviä 3000 ft:n korkeudessa

METAR: DTTF 291000Z 24009KT 200V270 8000 SCT030 25/08 Q1018 NOSIG

Aika: 11:29 (10:29 UTC)

Sääennuste

Tämä raportti tehtiin 1 tunti ja 29 minuuttia sitten, kello 09.00 UTC
Ennuste voimassa 29. päivästä klo 10 UTC - 29. päivään klo 19 UTC
Tuuli 10 kn etelästä/lounaasta
Näkyvyys: 8000 m
Hajanaisia pilviä 3000 ft:n korkeudessa
Todennäköisyys 30% :
Ajoittain
29. päivästä klo 15 UTC - 29. päivään klo 18 UTC
Näkyvyys: 4000 m
Muutamia pilviä 3300 ft:n korkeudessa, Cumulonimbus.
ukkosmyrsky, sadetta

TAF: DTTF 290900Z 2910/2919 21010KT 8000 SCT030 PROB30 TEMPO 2915/2918 4000 TSRA FEW033CB

Säähavainnot ja -ennusteet yli 4000 lentoasemalta (METAR- ja TAF-raportit).

Käytössä olevat sääasemat on merkitty karttaan keltaisilla ja punaisilla pisteillä.

Aseta hiiri pisteen päälle nähdäksesi sääaseman nimen.

Klikkaa sitten nähdäksesi säähavainnot ja -ennusteet.

Kartan vaihtaminen: klikkaa mustalla rastilla varustettuja vihreitä pisteitä, niin voit zoomata sisään; viivalla varustettua vihreää pistettä, niin voit zoomata ulos tai vihreitä nuolia, niin pääset viereisille kartoille.


METAR-TAF: